CheckWX is a tool to help pilots better visualize weather data.  It is not intended as a substitute for an official pre-flight weather briefing.

06:58:37 UTC

ENNE METAR
Norne Fpso Oilp
Norne Fpso Oilp, Norway
Current

39 mins ago

ENNE 210620Z 35010KT 0250 -DZ FG VV001 07/07 Q1016 W///S4
Observed
May-21 @ 06:20 UTC
Wind
  • 350° at 10 KTS
Visibility
258 meters
Flight Rules
LIFR
Conditions
Light Drizzle, Fog
Cloud Levels
  • Vertical visibility at 100' AGL
Temperature
C / 45°F
Dewpoint
C / 45°F
Humidity
100%
Altimeter
30" Hg
Pressure
1015.92 hPa
Previous

1 hour ago

ENNE 210545Z 35009KT 0200 -DZ FG VV001 07/07 Q1016 W///S4
Observed
May-21 @ 05:45 UTC
Wind
  • 350° at 9 KTS
Visibility
193 meters
Flight Rules
LIFR
Conditions
Light Drizzle, Fog
Cloud Levels
  • Vertical visibility at 100' AGL
Temperature
C / 45°F
Dewpoint
C / 45°F
Humidity
100%
Altimeter
30" Hg
Pressure
1015.92 hPa
Previous

2 hours ago

ENNE 210520Z 36008KT 0150 FG VV001 07/07 Q1016 W///S4
Observed
May-21 @ 05:20 UTC
Wind
  • 360° at 8 KTS
Visibility
145 meters
Flight Rules
LIFR
Conditions
Fog
Cloud Levels
  • Vertical visibility at 100' AGL
Temperature
C / 45°F
Dewpoint
C / 45°F
Humidity
100%
Altimeter
30" Hg
Pressure
1015.92 hPa